<?xml version='1.0' encoding='UTF-8'?><gpx version="1.1" creator="JPX - https://github.com/jenetics/jpx" xmlns="http://www.topografix.com/GPX/1/1"><trk><trkseg><trkpt lat="42.4105775" lon="12.7211806"><ele>858.0</ele><time>2026-04-05T11:39:45.529Z</time></trkpt><trkpt lat="42.410631" lon="12.7212263"><ele>858.0</ele><time>2026-04-05T11:39:51.529Z</time></trkpt><trkpt lat="42.410627" lon="12.7213156"><ele>858.0</ele><time>2026-04-05T11:39:58.529Z</time></trkpt><trkpt lat="42.4105819" lon="12.7213769"><ele>858.0</ele><time>2026-04-05T11:40:03.529Z</time></trkpt><trkpt lat="42.4105312" lon="12.7214325"><ele>858.0</ele><time>2026-04-05T11:40:09.531Z</time></trkpt><trkpt lat="42.4105171" lon="12.7215184"><ele>858.0</ele><time>2026-04-05T11:40:14.529Z</time></trkpt><trkpt lat="42.4105086" lon="12.721603"><ele>858.0</ele><time>2026-04-05T11:40:20.528Z</time></trkpt><trkpt lat="42.4104977" lon="12.7216892"><ele>858.0</ele><time>2026-04-05T11:40:26.483Z</time></trkpt><trkpt lat="42.4105026" lon="12.7217793"><ele>858.0</ele><time>2026-04-05T11:40:32.528Z</time></trkpt><trkpt lat="42.4105155" lon="12.7218707"><ele>858.0</ele><time>2026-04-05T11:40:39.528Z</time></trkpt><trkpt lat="42.4104831" lon="12.7219564"><ele>858.0</ele><time>2026-04-05T11:40:45.528Z</time></trkpt><trkpt lat="42.4104224" lon="12.7220128"><ele>858.0</ele><time>2026-04-05T11:40:51.527Z</time></trkpt><trkpt lat="42.4103543" lon="12.7220288"><ele>858.0</ele><time>2026-04-05T11:40:57.528Z</time></trkpt><trkpt lat="42.4103104" lon="12.7220971"><ele>858.0</ele><time>2026-04-05T11:41:02.528Z</time></trkpt><trkpt lat="42.4102744" lon="12.7221676"><ele>857.0</ele><time>2026-04-05T11:41:07.528Z</time></trkpt><trkpt lat="42.4102593" lon="12.7222581"><ele>856.0</ele><time>2026-04-05T11:41:12.441Z</time></trkpt><trkpt lat="42.4102657" lon="12.7223463"><ele>855.0</ele><time>2026-04-05T11:41:17.528Z</time></trkpt><trkpt lat="42.4102714" lon="12.7224396"><ele>854.0</ele><time>2026-04-05T11:41:23.528Z</time></trkpt><trkpt lat="42.4102949" lon="12.7225283"><ele>853.0</ele><time>2026-04-05T11:41:29.528Z</time></trkpt><trkpt lat="42.4103422" lon="12.7225851"><ele>852.0</ele><time>2026-04-05T11:41:34.528Z</time></trkpt><trkpt lat="42.4104146" lon="12.7225837"><ele>851.0</ele><time>2026-04-05T11:41:41.528Z</time></trkpt><trkpt lat="42.4104707" lon="12.7225405"><ele>853.2857142857143</ele><time>2026-04-05T11:41:47.526Z</time></trkpt><trkpt lat="42.4105377" lon="12.7225186"><ele>855.5714285714287</ele><time>2026-04-05T11:41:54.528Z</time></trkpt><trkpt lat="42.4106013" lon="12.7225605"><ele>857.8571428571429</ele><time>2026-04-05T11:42:02.521Z</time></trkpt><trkpt lat="42.4106331" lon="12.7226567"><ele>860.1428571428571</ele><time>2026-04-05T11:42:13.528Z</time></trkpt><trkpt lat="42.4106894" lon="12.7227042"><ele>862.4285714285714</ele><time>2026-04-05T11:42:20.528Z</time></trkpt><trkpt lat="42.4107539" lon="12.7227256"><ele>864.7142857142857</ele><time>2026-04-05T11:42:26.527Z</time></trkpt><trkpt lat="42.4108212" lon="12.7227338"><ele>867.0</ele><time>2026-04-05T11:42:32.45Z</time></trkpt><trkpt lat="42.4108853" lon="12.7227578"><ele>868.2857142857142</ele><time>2026-04-05T11:42:38.526Z</time></trkpt><trkpt lat="42.4109535" lon="12.7227998"><ele>869.5714285714287</ele><time>2026-04-05T11:42:45.483Z</time></trkpt><trkpt lat="42.410993" lon="12.722872"><ele>870.8571428571429</ele><time>2026-04-05T11:42:52.526Z</time></trkpt><trkpt lat="42.4110366" lon="12.7229418"><ele>872.1428571428571</ele><time>2026-04-05T11:42:58.527Z</time></trkpt><trkpt lat="42.4110832" lon="12.7230073"><ele>873.4285714285713</ele><time>2026-04-05T11:43:04.526Z</time></trkpt><trkpt lat="42.4111314" lon="12.723071"><ele>874.7142857142858</ele><time>2026-04-05T11:43:11.525Z</time></trkpt><trkpt lat="42.4111892" lon="12.7231286"><ele>876.0</ele><time>2026-04-05T11:43:18.504Z</time></trkpt><trkpt lat="42.4112558" lon="12.7231473"><ele>876.0</ele><time>2026-04-05T11:43:26.526Z</time></trkpt><trkpt lat="42.4113164" lon="12.7231955"><ele>876.0</ele><time>2026-04-05T11:43:32.527Z</time></trkpt><trkpt lat="42.4113697" lon="12.7232444"><ele>876.0</ele><time>2026-04-05T11:43:39.527Z</time></trkpt><trkpt lat="42.4114264" lon="12.7232819"><ele>876.0</ele><time>2026-04-05T11:43:46.527Z</time></trkpt><trkpt lat="42.4114954" lon="12.7232339"><ele>876.0</ele><time>2026-04-05T11:43:52.469Z</time></trkpt><trkpt lat="42.4115638" lon="12.7231795"><ele>876.0</ele><time>2026-04-05T11:43:56.531Z</time></trkpt><trkpt lat="42.4116178" lon="12.7231148"><ele>876.0</ele><time>2026-04-05T11:44:01.525Z</time></trkpt><trkpt lat="42.4116823" lon="12.723065"><ele>878.5714285714286</ele><time>2026-04-05T11:44:07.527Z</time></trkpt><trkpt lat="42.4117509" lon="12.7230442"><ele>881.1428571428571</ele><time>2026-04-05T11:44:13.398Z</time></trkpt><trkpt lat="42.4118118" lon="12.723017"><ele>883.7142857142857</ele><time>2026-04-05T11:44:19.527Z</time></trkpt><trkpt lat="42.4118817" lon="12.7229937"><ele>886.2857142857142</ele><time>2026-04-05T11:44:27.428Z</time></trkpt><trkpt lat="42.4119487" lon="12.722982"><ele>888.8571428571429</ele><time>2026-04-05T11:44:34.526Z</time></trkpt><trkpt lat="42.4120164" lon="12.7229667"><ele>891.4285714285713</ele><time>2026-04-05T11:44:42.526Z</time></trkpt><trkpt lat="42.4120801" lon="12.7229489"><ele>894.0</ele><time>2026-04-05T11:44:49.526Z</time></trkpt><trkpt lat="42.4121501" lon="12.7229452"><ele>896.8571428571428</ele><time>2026-04-05T11:44:58.526Z</time></trkpt><trkpt lat="42.4122143" lon="12.7229347"><ele>899.7142857142858</ele><time>2026-04-05T11:45:05.526Z</time></trkpt><trkpt lat="42.4122861" lon="12.7229415"><ele>902.5714285714287</ele><time>2026-04-05T11:45:11.53Z</time></trkpt><trkpt lat="42.4123522" lon="12.7229326"><ele>905.4285714285714</ele><time>2026-04-05T11:45:17.525Z</time></trkpt><trkpt lat="42.4124157" lon="12.7229071"><ele>908.2857142857143</ele><time>2026-04-05T11:45:23.521Z</time></trkpt><trkpt lat="42.4124864" lon="12.7229128"><ele>911.1428571428572</ele><time>2026-04-05T11:45:33.526Z</time></trkpt><trkpt lat="42.4125524" lon="12.7229306"><ele>914.0000000000001</ele><time>2026-04-05T11:45:42.526Z</time></trkpt><trkpt lat="42.412618" lon="12.722935"><ele>914.0000000000001</ele><time>2026-04-05T11:45:49.526Z</time></trkpt><trkpt lat="42.4126828" lon="12.7228998"><ele>914.0</ele><time>2026-04-05T11:45:54.525Z</time></trkpt><trkpt lat="42.4127438" lon="12.7228738"><ele>914.0000000000001</ele><time>2026-04-05T11:45:59.526Z</time></trkpt><trkpt lat="42.4128118" lon="12.7228486"><ele>914.0000000000001</ele><time>2026-04-05T11:46:04.526Z</time></trkpt><trkpt lat="42.4128778" lon="12.7228381"><ele>914.0</ele><time>2026-04-05T11:46:08.526Z</time></trkpt><trkpt lat="42.412942" lon="12.7228226"><ele>914.0000000000001</ele><time>2026-04-05T11:46:13.526Z</time></trkpt><trkpt lat="42.4130049" lon="12.7227949"><ele>914.0000000000001</ele><time>2026-04-05T11:46:19.525Z</time></trkpt><trkpt lat="42.4130775" lon="12.7227858"><ele>913.1428571428573</ele><time>2026-04-05T11:46:25.526Z</time></trkpt><trkpt lat="42.4131503" lon="12.7227602"><ele>912.2857142857143</ele><time>2026-04-05T11:46:31.504Z</time></trkpt><trkpt lat="42.4131978" lon="12.7226954"><ele>911.4285714285716</ele><time>2026-04-05T11:46:36.443Z</time></trkpt><trkpt lat="42.4132182" lon="12.7226117"><ele>910.5714285714287</ele><time>2026-04-05T11:46:41.524Z</time></trkpt><trkpt lat="42.4132554" lon="12.7225336"><ele>909.7142857142858</ele><time>2026-04-05T11:46:47.487Z</time></trkpt><trkpt lat="42.4132961" lon="12.7224647"><ele>908.8571428571429</ele><time>2026-04-05T11:46:53.524Z</time></trkpt><trkpt lat="42.4133438" lon="12.7223932"><ele>908.0</ele><time>2026-04-05T11:47:01.525Z</time></trkpt><trkpt lat="42.4133999" lon="12.7223305"><ele>908.0</ele><time>2026-04-05T11:47:09.524Z</time></trkpt><trkpt lat="42.413443" lon="12.7222572"><ele>908.0000000000001</ele><time>2026-04-05T11:47:15.525Z</time></trkpt><trkpt lat="42.4134544" lon="12.722154"><ele>908.0</ele><time>2026-04-05T11:47:20.524Z</time></trkpt><trkpt lat="42.4134675" lon="12.7220608"><ele>908.0</ele><time>2026-04-05T11:47:25.525Z</time></trkpt><trkpt lat="42.4134988" lon="12.7219751"><ele>908.0000000000001</ele><time>2026-04-05T11:47:30.511Z</time></trkpt><trkpt lat="42.4135402" lon="12.7219017"><ele>908.0</ele><time>2026-04-05T11:47:35.525Z</time></trkpt><trkpt lat="42.4135832" lon="12.7218324"><ele>908.0</ele><time>2026-04-05T11:47:41.529Z</time></trkpt><trkpt lat="42.4136172" lon="12.7217449"><ele>906.0</ele><time>2026-04-05T11:47:48.525Z</time></trkpt><trkpt lat="42.4136586" lon="12.721678"><ele>904.0000000000001</ele><time>2026-04-05T11:47:54.525Z</time></trkpt><trkpt lat="42.4136841" lon="12.7215911"><ele>902.0</ele><time>2026-04-05T11:48:03.525Z</time></trkpt><trkpt lat="42.4137179" lon="12.7215029"><ele>900.0</ele><time>2026-04-05T11:48:09.425Z</time></trkpt><trkpt lat="42.4137344" lon="12.7214148"><ele>898.0</ele><time>2026-04-05T11:48:14.524Z</time></trkpt><trkpt lat="42.4137683" lon="12.7213364"><ele>896.0</ele><time>2026-04-05T11:48:18.524Z</time></trkpt><trkpt lat="42.4137798" lon="12.7212431"><ele>894.0</ele><time>2026-04-05T11:48:23.5Z</time></trkpt><trkpt lat="42.4137653" lon="12.7211459"><ele>892.2857142857142</ele><time>2026-04-05T11:48:28.525Z</time></trkpt><trkpt lat="42.4137712" lon="12.7210441"><ele>890.5714285714286</ele><time>2026-04-05T11:48:33.537Z</time></trkpt><trkpt lat="42.4138104" lon="12.720962"><ele>888.8571428571429</ele><time>2026-04-05T11:48:38.524Z</time></trkpt><trkpt lat="42.4138549" lon="12.7208944"><ele>887.1428571428571</ele><time>2026-04-05T11:48:43.524Z</time></trkpt><trkpt lat="42.4138967" lon="12.7208296"><ele>885.4285714285714</ele><time>2026-04-05T11:48:49.524Z</time></trkpt><trkpt lat="42.4139349" lon="12.7207536"><ele>883.7142857142857</ele><time>2026-04-05T11:48:55.529Z</time></trkpt><trkpt lat="42.4139671" lon="12.7206698"><ele>882.0</ele><time>2026-04-05T11:49:01.524Z</time></trkpt><trkpt lat="42.4139946" lon="12.7205854"><ele>887.2857142857142</ele><time>2026-04-05T11:49:07.524Z</time></trkpt><trkpt lat="42.4140454" lon="12.7205189"><ele>892.5714285714286</ele><time>2026-04-05T11:49:13.524Z</time></trkpt><trkpt lat="42.4141046" lon="12.7204601"><ele>897.8571428571429</ele><time>2026-04-05T11:49:20.525Z</time></trkpt><trkpt lat="42.414163" lon="12.7204106"><ele>903.1428571428571</ele><time>2026-04-05T11:49:27.523Z</time></trkpt><trkpt lat="42.4142191" lon="12.7203632"><ele>908.4285714285713</ele><time>2026-04-05T11:49:33.524Z</time></trkpt><trkpt lat="42.4142789" lon="12.720328"><ele>913.7142857142857</ele><time>2026-04-05T11:49:39.504Z</time></trkpt><trkpt lat="42.4143414" lon="12.7202783"><ele>919.0</ele><time>2026-04-05T11:49:46.544Z</time></trkpt><trkpt lat="42.4144026" lon="12.7202388"><ele>920.5714285714286</ele><time>2026-04-05T11:49:54.524Z</time></trkpt><trkpt lat="42.4144684" lon="12.7202136"><ele>922.1428571428571</ele><time>2026-04-05T11:50:02.524Z</time></trkpt><trkpt lat="42.4145314" lon="12.7201868"><ele>923.7142857142857</ele><time>2026-04-05T11:50:10.525Z</time></trkpt><trkpt lat="42.4145996" lon="12.7201805"><ele>925.2857142857142</ele><time>2026-04-05T11:50:18.524Z</time></trkpt><trkpt lat="42.4146712" lon="12.7201736"><ele>926.8571428571429</ele><time>2026-04-05T11:50:26.524Z</time></trkpt><trkpt lat="42.414738" lon="12.7201556"><ele>928.4285714285713</ele><time>2026-04-05T11:50:34.524Z</time></trkpt><trkpt lat="42.414798" lon="12.7201223"><ele>930.0</ele><time>2026-04-05T11:50:41.448Z</time></trkpt><trkpt lat="42.4148599" lon="12.7200978"><ele>930.0</ele><time>2026-04-05T11:50:47.523Z</time></trkpt><trkpt lat="42.4149223" lon="12.7200676"><ele>930.0</ele><time>2026-04-05T11:50:53.45Z</time></trkpt><trkpt lat="42.4149802" lon="12.7200036"><ele>930.0</ele><time>2026-04-05T11:51:16.523Z</time></trkpt><trkpt lat="42.4150469" lon="12.7199691"><ele>930.0</ele><time>2026-04-05T11:51:22.528Z</time></trkpt><trkpt lat="42.4151118" lon="12.7199367"><ele>930.0</ele><time>2026-04-05T11:51:30.523Z</time></trkpt><trkpt lat="42.4151745" lon="12.7198932"><ele>930.0</ele><time>2026-04-05T11:51:39.523Z</time></trkpt><trkpt lat="42.4152397" lon="12.7198563"><ele>930.0</ele><time>2026-04-05T11:51:47.522Z</time></trkpt><trkpt lat="42.4153008" lon="12.7198071"><ele>930.0</ele><time>2026-04-05T11:51:54.523Z</time></trkpt><trkpt lat="42.4153582" lon="12.7197717"><ele>930.0</ele><time>2026-04-05T11:52:00.523Z</time></trkpt><trkpt lat="42.4154191" lon="12.719728"><ele>930.0</ele><time>2026-04-05T11:52:07.523Z</time></trkpt><trkpt lat="42.4154764" lon="12.7196829"><ele>930.0</ele><time>2026-04-05T11:52:13.523Z</time></trkpt><trkpt lat="42.4155329" lon="12.7196417"><ele>930.0</ele><time>2026-04-05T11:52:20.523Z</time></trkpt><trkpt lat="42.4155903" lon="12.7195959"><ele>930.0</ele><time>2026-04-05T11:52:26.523Z</time></trkpt><trkpt lat="42.4156577" lon="12.7195531"><ele>930.0</ele><time>2026-04-05T11:52:32.491Z</time></trkpt><trkpt lat="42.4157093" lon="12.7195015"><ele>930.8571428571429</ele><time>2026-04-05T11:52:40.423Z</time></trkpt><trkpt lat="42.4157774" lon="12.7194647"><ele>931.7142857142858</ele><time>2026-04-05T11:52:48.521Z</time></trkpt><trkpt lat="42.415844" lon="12.719408"><ele>932.5714285714287</ele><time>2026-04-05T11:53:37.522Z</time></trkpt><trkpt lat="42.4159081" lon="12.7193652"><ele>933.4285714285714</ele><time>2026-04-05T11:53:42.522Z</time></trkpt><trkpt lat="42.4159737" lon="12.7193196"><ele>934.2857142857144</ele><time>2026-04-05T11:53:49.522Z</time></trkpt><trkpt lat="42.4160436" lon="12.7192831"><ele>935.1428571428572</ele><time>2026-04-05T11:53:55.523Z</time></trkpt><trkpt lat="42.416109" lon="12.7192493"><ele>936.0</ele><time>2026-04-05T11:54:01.522Z</time></trkpt><trkpt lat="42.4161713" lon="12.7192282"><ele>936.0</ele><time>2026-04-05T11:54:06.504Z</time></trkpt><trkpt lat="42.4162329" lon="12.7191874"><ele>936.0000000000001</ele><time>2026-04-05T11:54:12.522Z</time></trkpt><trkpt lat="42.4163005" lon="12.7191643"><ele>936.0</ele><time>2026-04-05T11:54:19.503Z</time></trkpt><trkpt lat="42.4163648" lon="12.7191431"><ele>936.0</ele><time>2026-04-05T11:54:26.521Z</time></trkpt><trkpt lat="42.4164253" lon="12.7191133"><ele>936.0000000000001</ele><time>2026-04-05T11:54:32.522Z</time></trkpt><trkpt lat="42.4164878" lon="12.719087"><ele>936.0</ele><time>2026-04-05T11:54:38.522Z</time></trkpt><trkpt lat="42.4165548" lon="12.7190637"><ele>936.0</ele><time>2026-04-05T11:54:44.521Z</time></trkpt><trkpt lat="42.4166161" lon="12.7190373"><ele>939.5714285714287</ele><time>2026-04-05T11:54:49.523Z</time></trkpt><trkpt lat="42.4166765" lon="12.7189906"><ele>943.1428571428572</ele><time>2026-04-05T11:54:54.521Z</time></trkpt><trkpt lat="42.4167389" lon="12.7189443"><ele>946.7142857142858</ele><time>2026-04-05T11:55:00.52Z</time></trkpt><trkpt lat="42.4167978" lon="12.7188975"><ele>950.2857142857142</ele><time>2026-04-05T11:55:06.521Z</time></trkpt><trkpt lat="42.4168604" lon="12.7188501"><ele>953.8571428571428</ele><time>2026-04-05T11:55:12.532Z</time></trkpt><trkpt lat="42.4169198" lon="12.7187984"><ele>957.4285714285713</ele><time>2026-04-05T11:55:18.456Z</time></trkpt><trkpt lat="42.416978" lon="12.7187634"><ele>961.0</ele><time>2026-04-05T11:55:24.52Z</time></trkpt><trkpt lat="42.4170294" lon="12.7187093"><ele>961.0</ele><time>2026-04-05T11:55:30.521Z</time></trkpt><trkpt lat="42.4170843" lon="12.7186552"><ele>960.9999999999999</ele><time>2026-04-05T11:55:36.528Z</time></trkpt><trkpt lat="42.4171416" lon="12.7186138"><ele>961.0</ele><time>2026-04-05T11:55:42.521Z</time></trkpt><trkpt lat="42.4172045" lon="12.7185869"><ele>961.0</ele><time>2026-04-05T11:55:48.521Z</time></trkpt><trkpt lat="42.4172649" lon="12.7185619"><ele>960.9999999999999</ele><time>2026-04-05T11:55:54.521Z</time></trkpt><trkpt lat="42.4173238" lon="12.7185226"><ele>961.0</ele><time>2026-04-05T11:56:00.524Z</time></trkpt><trkpt lat="42.4173783" lon="12.718466"><ele>961.0</ele><time>2026-04-05T11:56:07.52Z</time></trkpt><trkpt lat="42.4174377" lon="12.7184122"><ele>961.1428571428571</ele><time>2026-04-05T11:56:13.52Z</time></trkpt><trkpt lat="42.4174957" lon="12.7183574"><ele>961.2857142857142</ele><time>2026-04-05T11:56:19.52Z</time></trkpt><trkpt lat="42.4175506" lon="12.7183027"><ele>961.4285714285713</ele><time>2026-04-05T11:56:25.525Z</time></trkpt><trkpt lat="42.4176134" lon="12.7182515"><ele>961.5714285714284</ele><time>2026-04-05T11:56:31.52Z</time></trkpt><trkpt lat="42.417674" lon="12.7182099"><ele>961.7142857142857</ele><time>2026-04-05T11:56:37.519Z</time></trkpt><trkpt lat="42.417733" lon="12.7181611"><ele>961.8571428571427</ele><time>2026-04-05T11:56:44.424Z</time></trkpt><trkpt lat="42.4178014" lon="12.7181288"><ele>961.9999999999999</ele><time>2026-04-05T11:56:51.502Z</time></trkpt><trkpt lat="42.4178563" lon="12.7180842"><ele>961.9999999999999</ele><time>2026-04-05T11:56:56.52Z</time></trkpt><trkpt lat="42.4179145" lon="12.7180405"><ele>962.0</ele><time>2026-04-05T11:57:01.519Z</time></trkpt><trkpt lat="42.417972" lon="12.717989"><ele>961.9999999999999</ele><time>2026-04-05T11:57:07.527Z</time></trkpt><trkpt lat="42.4180305" lon="12.7179395"><ele>961.9999999999999</ele><time>2026-04-05T11:57:13.52Z</time></trkpt><trkpt lat="42.4180945" lon="12.7178967"><ele>962.0</ele><time>2026-04-05T11:57:21.52Z</time></trkpt><trkpt lat="42.4181635" lon="12.7178795"><ele>961.9999999999999</ele><time>2026-04-05T11:57:29.52Z</time></trkpt><trkpt lat="42.4182246" lon="12.7178356"><ele>961.9999999999999</ele><time>2026-04-05T11:57:36.52Z</time></trkpt><trkpt lat="42.4182864" lon="12.7178064"><ele>962.8571428571427</ele><time>2026-04-05T11:57:44.52Z</time></trkpt><trkpt lat="42.4183588" lon="12.717791"><ele>963.7142857142857</ele><time>2026-04-05T11:58:01.52Z</time></trkpt><trkpt lat="42.4184217" lon="12.7177775"><ele>964.5714285714284</ele><time>2026-04-05T11:58:08.519Z</time></trkpt><trkpt lat="42.4184858" lon="12.7177586"><ele>965.4285714285713</ele><time>2026-04-05T11:58:15.52Z</time></trkpt><trkpt lat="42.4185536" lon="12.7177316"><ele>966.2857142857142</ele><time>2026-04-05T11:58:23.519Z</time></trkpt><trkpt lat="42.4186171" lon="12.7176967"><ele>967.1428571428571</ele><time>2026-04-05T11:58:29.522Z</time></trkpt><trkpt lat="42.4186791" lon="12.717662"><ele>968.0</ele><time>2026-04-05T11:58:35.52Z</time></trkpt><trkpt lat="42.4187451" lon="12.7176349"><ele>968.0</ele><time>2026-04-05T11:58:41.52Z</time></trkpt><trkpt lat="42.4188031" lon="12.7175978"><ele>967.9999999999999</ele><time>2026-04-05T11:58:47.52Z</time></trkpt><trkpt lat="42.4188707" lon="12.7175712"><ele>968.0</ele><time>2026-04-05T11:58:53.519Z</time></trkpt><trkpt lat="42.4189342" lon="12.7175585"><ele>968.0</ele><time>2026-04-05T11:58:59.518Z</time></trkpt><trkpt lat="42.4190037" lon="12.7175435"><ele>967.9999999999999</ele><time>2026-04-05T11:59:06.524Z</time></trkpt><trkpt lat="42.4190707" lon="12.7175091"><ele>968.0</ele><time>2026-04-05T11:59:13.519Z</time></trkpt><trkpt lat="42.4191331" lon="12.7174964"><ele>968.0</ele><time>2026-04-05T11:59:18.519Z</time></trkpt><trkpt lat="42.4192012" lon="12.7174799"><ele>970.7142857142857</ele><time>2026-04-05T11:59:25.519Z</time></trkpt><trkpt lat="42.4192701" lon="12.7174599"><ele>973.4285714285713</ele><time>2026-04-05T11:59:31.504Z</time></trkpt><trkpt lat="42.4193323" lon="12.7174412"><ele>976.1428571428571</ele><time>2026-04-05T11:59:36.518Z</time></trkpt><trkpt lat="42.4193981" lon="12.7174158"><ele>978.8571428571429</ele><time>2026-04-05T11:59:42.519Z</time></trkpt><trkpt lat="42.4194692" lon="12.7173872"><ele>981.5714285714286</ele><time>2026-04-05T11:59:49.519Z</time></trkpt><trkpt lat="42.4195332" lon="12.7173847"><ele>984.2857142857142</ele><time>2026-04-05T11:59:54.519Z</time></trkpt><trkpt lat="42.4196047" lon="12.7173743"><ele>987.0</ele><time>2026-04-05T12:00:00.46Z</time></trkpt><trkpt lat="42.4196645" lon="12.7173452"><ele>987.5714285714286</ele><time>2026-04-05T12:00:05.518Z</time></trkpt><trkpt lat="42.4197209" lon="12.7172871"><ele>988.1428571428571</ele><time>2026-04-05T12:00:10.52Z</time></trkpt><trkpt lat="42.4197801" lon="12.7172318"><ele>988.7142857142858</ele><time>2026-04-05T12:02:40.518Z</time></trkpt><trkpt lat="42.419844" lon="12.7172035"><ele>989.2857142857143</ele><time>2026-04-05T12:02:44.518Z</time></trkpt><trkpt lat="42.4199081" lon="12.7171477"><ele>989.8571428571429</ele><time>2026-04-05T12:02:49.429Z</time></trkpt><trkpt lat="42.4199544" lon="12.7170846"><ele>990.4285714285716</ele><time>2026-04-05T12:02:54.517Z</time></trkpt><trkpt lat="42.4200081" lon="12.7170331"><ele>991.0000000000001</ele><time>2026-04-05T12:02:59.517Z</time></trkpt><trkpt lat="42.4200655" lon="12.7169825"><ele>991.0000000000001</ele><time>2026-04-05T12:03:04.525Z</time></trkpt><trkpt lat="42.420118" lon="12.7169214"><ele>991.0</ele><time>2026-04-05T12:03:09.517Z</time></trkpt><trkpt lat="42.4201638" lon="12.7168615"><ele>991.0000000000001</ele><time>2026-04-05T12:03:14.489Z</time></trkpt><trkpt lat="42.4201988" lon="12.7167753"><ele>991.0000000000001</ele><time>2026-04-05T12:03:20.423Z</time></trkpt><trkpt lat="42.4202495" lon="12.7167102"><ele>991.0</ele><time>2026-04-05T12:03:26.515Z</time></trkpt><trkpt lat="42.420307" lon="12.7166735"><ele>991.0000000000001</ele><time>2026-04-05T12:03:32.517Z</time></trkpt><trkpt lat="42.4203745" lon="12.7166242"><ele>991.0000000000001</ele><time>2026-04-05T12:03:38.517Z</time></trkpt><trkpt lat="42.4204325" lon="12.7165728"><ele>991.5714285714287</ele><time>2026-04-05T12:03:44.517Z</time></trkpt><trkpt lat="42.420486" lon="12.7165042"><ele>992.1428571428571</ele><time>2026-04-05T12:03:51.517Z</time></trkpt><trkpt lat="42.4205527" lon="12.7164581"><ele>992.7142857142858</ele><time>2026-04-05T12:04:42.516Z</time></trkpt><trkpt lat="42.4206177" lon="12.7164445"><ele>993.2857142857143</ele><time>2026-04-05T12:04:47.528Z</time></trkpt><trkpt lat="42.4206949" lon="12.7164696"><ele>993.8571428571429</ele><time>2026-04-05T12:04:52.516Z</time></trkpt><trkpt lat="42.420759" lon="12.716494"><ele>994.4285714285714</ele><time>2026-04-05T12:04:57.516Z</time></trkpt><trkpt lat="42.4208294" lon="12.7165046"><ele>995.0</ele><time>2026-04-05T12:05:03.516Z</time></trkpt><trkpt lat="42.4208973" lon="12.7165108"><ele>995.0</ele><time>2026-04-05T12:05:08.517Z</time></trkpt><trkpt lat="42.4209621" lon="12.7165436"><ele>995.0</ele><time>2026-04-05T12:05:15.515Z</time></trkpt><trkpt lat="42.4210116" lon="12.716612"><ele>995.0</ele><time>2026-04-05T12:05:21.516Z</time></trkpt><trkpt lat="42.4210535" lon="12.7166813"><ele>995.0</ele><time>2026-04-05T12:05:26.516Z</time></trkpt><trkpt lat="42.4210971" lon="12.7167445"><ele>995.0</ele><time>2026-04-05T12:05:31.503Z</time></trkpt><trkpt lat="42.4211456" lon="12.7168133"><ele>995.0</ele><time>2026-04-05T12:05:37.516Z</time></trkpt><trkpt lat="42.4212057" lon="12.7168715"><ele>995.0</ele><time>2026-04-05T12:05:42.516Z</time></trkpt><trkpt lat="42.421258" lon="12.716933"><ele>996.4285714285714</ele><time>2026-04-05T12:05:48.46Z</time></trkpt><trkpt lat="42.4213136" lon="12.7169992"><ele>997.8571428571429</ele><time>2026-04-05T12:05:54.516Z</time></trkpt><trkpt lat="42.4213738" lon="12.7170576"><ele>999.2857142857143</ele><time>2026-04-05T12:05:59.522Z</time></trkpt><trkpt lat="42.4214295" lon="12.7171008"><ele>1000.7142857142858</ele><time>2026-04-05T12:06:04.484Z</time></trkpt><trkpt lat="42.4215" lon="12.717111"><ele>1002.1428571428571</ele><time>2026-04-05T12:06:10.515Z</time></trkpt><trkpt lat="42.4215688" lon="12.7171047"><ele>1003.5714285714287</ele><time>2026-04-05T12:06:15.516Z</time></trkpt><trkpt lat="42.4216356" lon="12.7170946"><ele>1005.0000000000001</ele><time>2026-04-05T12:06:22.515Z</time></trkpt><trkpt lat="42.421702" lon="12.7170852"><ele>1004.7142857142858</ele><time>2026-04-05T12:06:26.526Z</time></trkpt><trkpt lat="42.4217772" lon="12.7170888"><ele>1004.4285714285714</ele><time>2026-04-05T12:06:30.516Z</time></trkpt><trkpt lat="42.4218424" lon="12.7171034"><ele>1004.1428571428571</ele><time>2026-04-05T12:06:34.516Z</time></trkpt><trkpt lat="42.4219138" lon="12.7170993"><ele>1003.8571428571429</ele><time>2026-04-05T12:06:40.515Z</time></trkpt><trkpt lat="42.4219781" lon="12.717083"><ele>1003.5714285714284</ele><time>2026-04-05T12:06:45.515Z</time></trkpt><trkpt lat="42.4220406" lon="12.7170663"><ele>1003.2857142857142</ele><time>2026-04-05T12:06:50.479Z</time></trkpt><trkpt lat="42.4221086" lon="12.7170511"><ele>1003.0</ele><time>2026-04-05T12:06:55.439Z</time></trkpt><trkpt lat="42.4221812" lon="12.7170538"><ele>1003.0</ele><time>2026-04-05T12:07:00.515Z</time></trkpt><trkpt lat="42.4222506" lon="12.7170417"><ele>1002.9999999999999</ele><time>2026-04-05T12:07:05.515Z</time></trkpt><trkpt lat="42.4223259" lon="12.7170366"><ele>1003.0</ele><time>2026-04-05T12:07:11.515Z</time></trkpt><trkpt lat="42.4224006" lon="12.7170227"><ele>1003.0</ele><time>2026-04-05T12:07:17.514Z</time></trkpt><trkpt lat="42.4224676" lon="12.7170181"><ele>1002.9999999999999</ele><time>2026-04-05T12:07:22.515Z</time></trkpt><trkpt lat="42.4225314" lon="12.7170533"><ele>1003.0</ele><time>2026-04-05T12:07:27.515Z</time></trkpt><trkpt lat="42.422598" lon="12.7170776"><ele>1003.0</ele><time>2026-04-05T12:07:32.515Z</time></trkpt><trkpt lat="42.4226646" lon="12.7171102"><ele>1003.0</ele><time>2026-04-05T12:07:37.506Z</time></trkpt><trkpt lat="42.4227212" lon="12.7171678"><ele>1002.9999999999999</ele><time>2026-04-05T12:07:42.514Z</time></trkpt><trkpt lat="42.4227862" lon="12.7171952"><ele>1003.0</ele><time>2026-04-05T12:07:47.515Z</time></trkpt><trkpt lat="42.4228537" lon="12.717226"><ele>1003.0</ele><time>2026-04-05T12:07:52.515Z</time></trkpt><trkpt lat="42.422923" lon="12.7172525"><ele>1002.9999999999999</ele><time>2026-04-05T12:07:57.514Z</time></trkpt><trkpt lat="42.4229925" lon="12.7172547"><ele>1003.0</ele><time>2026-04-05T12:08:02.515Z</time></trkpt><trkpt lat="42.4230635" lon="12.7172791"><ele>1003.0</ele><time>2026-04-05T12:08:08.44Z</time></trkpt><trkpt lat="42.4231318" lon="12.7172988"><ele>1000.2857142857142</ele><time>2026-04-05T12:08:14.515Z</time></trkpt><trkpt lat="42.423195" lon="12.7173209"><ele>997.5714285714284</ele><time>2026-04-05T12:08:19.461Z</time></trkpt><trkpt lat="42.4232666" lon="12.71735"><ele>994.8571428571429</ele><time>2026-04-05T12:08:25.515Z</time></trkpt><trkpt lat="42.4233349" lon="12.7173738"><ele>992.1428571428571</ele><time>2026-04-05T12:08:30.522Z</time></trkpt><trkpt lat="42.4234017" lon="12.7174036"><ele>989.4285714285714</ele><time>2026-04-05T12:08:35.514Z</time></trkpt><trkpt lat="42.4234633" lon="12.7174564"><ele>986.7142857142858</ele><time>2026-04-05T12:08:40.504Z</time></trkpt><trkpt lat="42.4235214" lon="12.7175204"><ele>984.0000000000001</ele><time>2026-04-05T12:08:45.503Z</time></trkpt><trkpt lat="42.4235693" lon="12.7175823"><ele>984.0000000000001</ele><time>2026-04-05T12:08:51.514Z</time></trkpt><trkpt lat="42.4236181" lon="12.7176512"><ele>984.0</ele><time>2026-04-05T12:08:57.513Z</time></trkpt><trkpt lat="42.4236699" lon="12.717715"><ele>984.0000000000001</ele><time>2026-04-05T12:09:03.485Z</time></trkpt><trkpt lat="42.4237418" lon="12.7177089"><ele>984.0000000000001</ele><time>2026-04-05T12:09:09.514Z</time></trkpt><trkpt lat="42.4238043" lon="12.7176837"><ele>984.0</ele><time>2026-04-05T12:09:13.513Z</time></trkpt><trkpt lat="42.4238698" lon="12.7176508"><ele>984.0000000000001</ele><time>2026-04-05T12:09:17.514Z</time></trkpt><trkpt lat="42.4239351" lon="12.7176069"><ele>984.0000000000001</ele><time>2026-04-05T12:09:22.433Z</time></trkpt><trkpt lat="42.4240012" lon="12.7175858"><ele>982.4285714285716</ele><time>2026-04-05T12:09:28.436Z</time></trkpt><trkpt lat="42.4240707" lon="12.7175843"><ele>980.8571428571429</ele><time>2026-04-05T12:09:41.514Z</time></trkpt><trkpt lat="42.4241466" lon="12.7175934"><ele>979.2857142857143</ele><time>2026-04-05T12:09:46.526Z</time></trkpt><trkpt lat="42.4242116" lon="12.7176505"><ele>977.7142857142858</ele><time>2026-04-05T12:09:51.514Z</time></trkpt><trkpt lat="42.4242484" lon="12.717728"><ele>976.1428571428571</ele><time>2026-04-05T12:09:56.514Z</time></trkpt><trkpt lat="42.4242825" lon="12.7178185"><ele>974.5714285714286</ele><time>2026-04-05T12:10:02.514Z</time></trkpt><trkpt lat="42.4243289" lon="12.7178783"><ele>973.0</ele><time>2026-04-05T12:10:07.514Z</time></trkpt><trkpt lat="42.4243878" lon="12.7179167"><ele>973.7142857142858</ele><time>2026-04-05T12:10:27.514Z</time></trkpt><trkpt lat="42.424433" lon="12.7179901"><ele>974.4285714285714</ele><time>2026-04-05T12:10:35.516Z</time></trkpt><trkpt lat="42.4244933" lon="12.7180399"><ele>975.1428571428571</ele><time>2026-04-05T12:10:40.513Z</time></trkpt><trkpt lat="42.4245518" lon="12.718076"><ele>975.8571428571429</ele><time>2026-04-05T12:10:44.514Z</time></trkpt><trkpt lat="42.4246155" lon="12.7181271"><ele>976.5714285714287</ele><time>2026-04-05T12:10:49.514Z</time></trkpt><trkpt lat="42.4246798" lon="12.7181753"><ele>977.2857142857143</ele><time>2026-04-05T12:10:55.512Z</time></trkpt><trkpt lat="42.424748" lon="12.7182257"><ele>978.0</ele><time>2026-04-05T12:11:00.537Z</time></trkpt><trkpt lat="42.4248032" lon="12.7182774"><ele>978.0</ele><time>2026-04-05T12:11:05.513Z</time></trkpt><trkpt lat="42.4248583" lon="12.7183282"><ele>978.0000000000001</ele><time>2026-04-05T12:11:10.513Z</time></trkpt><trkpt lat="42.4249136" lon="12.7183827"><ele>978.0</ele><time>2026-04-05T12:11:15.512Z</time></trkpt><trkpt lat="42.4249713" lon="12.7184304"><ele>978.0</ele><time>2026-04-05T12:11:20.513Z</time></trkpt><trkpt lat="42.42503" lon="12.7184732"><ele>978.0000000000001</ele><time>2026-04-05T12:11:25.513Z</time></trkpt><trkpt lat="42.4250964" lon="12.7185402"><ele>978.0</ele><time>2026-04-05T12:11:31.513Z</time></trkpt><trkpt lat="42.4251571" lon="12.7185754"><ele>978.0</ele><time>2026-04-05T12:11:38.512Z</time></trkpt><trkpt lat="42.4253881" lon="12.7185991"><ele>978.1428571428572</ele><time>2026-04-05T12:12:13.514Z</time></trkpt><trkpt lat="42.4254544" lon="12.7186334"><ele>978.2857142857144</ele><time>2026-04-05T12:12:23.513Z</time></trkpt><trkpt lat="42.4255108" lon="12.7186882"><ele>978.4285714285714</ele><time>2026-04-05T12:12:28.512Z</time></trkpt><trkpt lat="42.4255679" lon="12.7187383"><ele>978.5714285714287</ele><time>2026-04-05T12:12:34.513Z</time></trkpt><trkpt lat="42.4256258" lon="12.718785"><ele>978.7142857142858</ele><time>2026-04-05T12:12:40.521Z</time></trkpt><trkpt lat="42.4256838" lon="12.7188358"><ele>978.8571428571429</ele><time>2026-04-05T12:12:46.512Z</time></trkpt><trkpt lat="42.4257422" lon="12.7188857"><ele>979.0</ele><time>2026-04-05T12:12:52.513Z</time></trkpt><trkpt lat="42.4257983" lon="12.7189518"><ele>979.0</ele><time>2026-04-05T12:12:58.512Z</time></trkpt><trkpt lat="42.4258386" lon="12.7190339"><ele>979.0</ele><time>2026-04-05T12:13:04.517Z</time></trkpt><trkpt lat="42.4258673" lon="12.7191117"><ele>979.0</ele><time>2026-04-05T12:13:09.492Z</time></trkpt><trkpt lat="42.4258951" lon="12.7192035"><ele>979.0</ele><time>2026-04-05T12:13:15.453Z</time></trkpt><trkpt lat="42.4259238" lon="12.7192947"><ele>979.0</ele><time>2026-04-05T12:13:27.511Z</time></trkpt><trkpt lat="42.4259496" lon="12.7193796"><ele>979.0</ele><time>2026-04-05T12:13:32.533Z</time></trkpt><trkpt lat="42.4259679" lon="12.7194631"><ele>979.0</ele><time>2026-04-05T12:13:37.43Z</time></trkpt><trkpt lat="42.4259934" lon="12.7195528"><ele>980.5714285714286</ele><time>2026-04-05T12:13:42.512Z</time></trkpt><trkpt lat="42.4260165" lon="12.7196346"><ele>982.1428571428571</ele><time>2026-04-05T12:13:48.434Z</time></trkpt><trkpt lat="42.4260362" lon="12.7197175"><ele>983.7142857142857</ele><time>2026-04-05T12:13:53.512Z</time></trkpt><trkpt lat="42.4260622" lon="12.7197968"><ele>985.2857142857142</ele><time>2026-04-05T12:13:58.511Z</time></trkpt><trkpt lat="42.4261058" lon="12.7198757"><ele>986.8571428571429</ele><time>2026-04-05T12:14:04.471Z</time></trkpt><trkpt lat="42.4261588" lon="12.7199223"><ele>988.4285714285713</ele><time>2026-04-05T12:14:10.452Z</time></trkpt><trkpt lat="42.4262226" lon="12.7199294"><ele>989.9999999999999</ele><time>2026-04-05T12:14:17.512Z</time></trkpt><trkpt lat="42.4262905" lon="12.7199597"><ele>988.0</ele><time>2026-04-05T12:14:22.389Z</time></trkpt><trkpt lat="42.4263581" lon="12.7199705"><ele>986.0</ele><time>2026-04-05T12:14:27.512Z</time></trkpt><trkpt lat="42.4264327" lon="12.7199528"><ele>984.0</ele><time>2026-04-05T12:14:33.512Z</time></trkpt><trkpt lat="42.4266599" lon="12.7204952"><ele>984.0000000000001</ele><time>2026-04-05T12:15:29.495Z</time></trkpt><trkpt lat="42.4266602" lon="12.720589"><ele>984.0</ele><time>2026-04-05T12:15:36.413Z</time></trkpt><trkpt lat="42.4266353" lon="12.7206826"><ele>984.0000000000001</ele><time>2026-04-05T12:15:42.426Z</time></trkpt><trkpt lat="42.4266426" lon="12.7207712"><ele>984.0000000000001</ele><time>2026-04-05T12:15:49.511Z</time></trkpt><trkpt lat="42.4266355" lon="12.7208573"><ele>984.0</ele><time>2026-04-05T12:15:57.51Z</time></trkpt><trkpt lat="42.42663" lon="12.7209454"><ele>984.0000000000001</ele><time>2026-04-05T12:16:02.418Z</time></trkpt><trkpt lat="42.4266265" lon="12.7210388"><ele>984.0000000000001</ele><time>2026-04-05T12:16:07.522Z</time></trkpt><trkpt lat="42.4266333" lon="12.7211345"><ele>984.5</ele><time>2026-04-05T12:16:13.51Z</time></trkpt><trkpt lat="42.4266423" lon="12.7212274"><ele>985.0</ele><time>2026-04-05T12:16:19.51Z</time></trkpt><trkpt lat="42.4266825" lon="12.7212992"><ele>985.5</ele><time>2026-04-05T12:16:24.509Z</time></trkpt><trkpt lat="42.4267371" lon="12.7213515"><ele>986.0</ele><time>2026-04-05T12:16:30.413Z</time></trkpt><trkpt lat="42.4267561" lon="12.7214374"><ele>986.5</ele><time>2026-04-05T12:16:35.506Z</time></trkpt><trkpt lat="42.4268125" lon="12.7215026"><ele>987.0</ele><time>2026-04-05T12:16:41.51Z</time></trkpt><trkpt lat="42.427083" lon="12.7211432"><ele>985.8</ele><time>2026-04-05T12:18:25.51Z</time></trkpt><trkpt lat="42.4271937" lon="12.7210175"><ele>984.6</ele><time>2026-04-05T12:18:33.51Z</time></trkpt><trkpt lat="42.4273082" lon="12.7209137"><ele>983.3999999999999</ele><time>2026-04-05T12:18:44.512Z</time></trkpt><trkpt lat="42.4273632" lon="12.7208693"><ele>982.1999999999999</ele><time>2026-04-05T12:18:49.51Z</time></trkpt><trkpt lat="42.4274105" lon="12.7208106"><ele>981.0</ele><time>2026-04-05T12:18:54.51Z</time></trkpt><trkpt lat="42.4275283" lon="12.720718"><ele>981.0</ele><time>2026-04-05T12:19:04.51Z</time></trkpt><trkpt lat="42.4275902" lon="12.7206749"><ele>981.0</ele><time>2026-04-05T12:19:10.515Z</time></trkpt><trkpt lat="42.4276617" lon="12.7206466"><ele>981.0</ele><time>2026-04-05T12:19:17.532Z</time></trkpt><trkpt lat="42.4277966" lon="12.7205777"><ele>981.0</ele><time>2026-04-05T12:19:28.508Z</time></trkpt><trkpt lat="42.4278605" lon="12.7205231"><ele>981.0</ele><time>2026-04-05T12:19:34.51Z</time></trkpt><trkpt lat="42.4279103" lon="12.7204704"><ele>981.0</ele><time>2026-04-05T12:19:39.526Z</time></trkpt><trkpt lat="42.4280183" lon="12.7203522"><ele>981.0</ele><time>2026-04-05T12:19:50.509Z</time></trkpt><trkpt lat="42.4280743" lon="12.7203019"><ele>981.0</ele><time>2026-04-05T12:19:56.509Z</time></trkpt><trkpt lat="42.4281263" lon="12.7202296"><ele>981.0</ele><time>2026-04-05T12:20:02.484Z</time></trkpt><trkpt lat="42.4282142" lon="12.7200962"><ele>981.0</ele><time>2026-04-05T12:20:13.509Z</time></trkpt><trkpt lat="42.4282557" lon="12.7200213"><ele>981.0</ele><time>2026-04-05T12:20:19.508Z</time></trkpt><trkpt lat="42.4282814" lon="12.7199423"><ele>981.0</ele><time>2026-04-05T12:20:25.512Z</time></trkpt><trkpt lat="42.4283609" lon="12.719793"><ele>981.0</ele><time>2026-04-05T12:20:37.509Z</time></trkpt><trkpt lat="42.4283986" lon="12.7197205"><ele>981.0</ele><time>2026-04-05T12:20:43.508Z</time></trkpt><trkpt lat="42.4284527" lon="12.7196532"><ele>981.0</ele><time>2026-04-05T12:20:50.511Z</time></trkpt><trkpt lat="42.4284734" lon="12.7195287"><ele>981.0</ele><time>2026-04-05T12:21:39.508Z</time></trkpt><trkpt lat="42.4285233" lon="12.7194741"><ele>981.0</ele><time>2026-04-05T12:21:47.508Z</time></trkpt><trkpt lat="42.4285627" lon="12.7194072"><ele>981.0</ele><time>2026-04-05T12:22:04.508Z</time></trkpt><trkpt lat="42.4286133" lon="12.7193517"><ele>981.0</ele><time>2026-04-05T12:22:11.452Z</time></trkpt><trkpt lat="42.4286765" lon="12.71931"><ele>982.2857142857143</ele><time>2026-04-05T12:22:18.508Z</time></trkpt><trkpt lat="42.4287448" lon="12.7192768"><ele>983.5714285714284</ele><time>2026-04-05T12:22:26.508Z</time></trkpt><trkpt lat="42.42879" lon="12.7192119"><ele>984.8571428571428</ele><time>2026-04-05T12:22:33.507Z</time></trkpt><trkpt lat="42.4288308" lon="12.719146"><ele>986.1428571428571</ele><time>2026-04-05T12:22:38.532Z</time></trkpt><trkpt lat="42.4288719" lon="12.7190801"><ele>987.4285714285713</ele><time>2026-04-05T12:22:44.562Z</time></trkpt><trkpt lat="42.4289252" lon="12.7190096"><ele>988.7142857142856</ele><time>2026-04-05T12:22:51.508Z</time></trkpt><trkpt lat="42.4289773" lon="12.7189606"><ele>989.9999999999999</ele><time>2026-04-05T12:22:58.506Z</time></trkpt><trkpt lat="42.4290229" lon="12.7189018"><ele>992.2857142857142</ele><time>2026-04-05T12:23:05.507Z</time></trkpt><trkpt lat="42.4290627" lon="12.7188278"><ele>994.5714285714286</ele><time>2026-04-05T12:23:11.506Z</time></trkpt><trkpt lat="42.4291138" lon="12.718759"><ele>996.8571428571429</ele><time>2026-04-05T12:23:19.507Z</time></trkpt><trkpt lat="42.4291574" lon="12.7186958"><ele>999.1428571428571</ele><time>2026-04-05T12:23:25.506Z</time></trkpt><trkpt lat="42.4292027" lon="12.7186231"><ele>1001.4285714285716</ele><time>2026-04-05T12:23:31.507Z</time></trkpt><trkpt lat="42.4292446" lon="12.7185434"><ele>1003.7142857142858</ele><time>2026-04-05T12:23:38.507Z</time></trkpt><trkpt lat="42.4292975" lon="12.7184806"><ele>1006.0</ele><time>2026-04-05T12:23:46.512Z</time></trkpt><trkpt lat="42.4293413" lon="12.7184189"><ele>1006.5714285714287</ele><time>2026-04-05T12:23:53.507Z</time></trkpt><trkpt lat="42.4293668" lon="12.7183279"><ele>1007.1428571428572</ele><time>2026-04-05T12:24:00.506Z</time></trkpt><trkpt lat="42.429411" lon="12.7182515"><ele>1007.7142857142858</ele><time>2026-04-05T12:24:28.507Z</time></trkpt><trkpt lat="42.4294559" lon="12.718166"><ele>1008.2857142857142</ele><time>2026-04-05T12:24:34.507Z</time></trkpt><trkpt lat="42.4294998" lon="12.7181027"><ele>1008.8571428571428</ele><time>2026-04-05T12:24:40.506Z</time></trkpt><trkpt lat="42.4295511" lon="12.7180506"><ele>1009.4285714285713</ele><time>2026-04-05T12:24:47.506Z</time></trkpt><trkpt lat="42.4295925" lon="12.7179817"><ele>1010.0</ele><time>2026-04-05T12:24:55.506Z</time></trkpt><trkpt lat="42.4296324" lon="12.7179096"><ele>1012.0</ele><time>2026-04-05T12:25:02.474Z</time></trkpt><trkpt lat="42.4296698" lon="12.7178245"><ele>1014.0</ele><time>2026-04-05T12:25:10.493Z</time></trkpt><trkpt lat="42.4297076" lon="12.7177442"><ele>1016.0</ele><time>2026-04-05T12:25:57.506Z</time></trkpt><trkpt lat="42.4297545" lon="12.7176685"><ele>1018.0</ele><time>2026-04-05T12:26:02.506Z</time></trkpt><trkpt lat="42.430447" lon="12.716913"><ele>1018.0</ele><time>2026-04-05T12:27:35.505Z</time></trkpt></trkseg><trkseg><trkpt lat="42.419588" lon="12.7173793"><ele>987.0</ele><time>2026-04-05T13:49:46.469Z</time></trkpt><trkpt lat="42.419526" lon="12.7174067"><ele>987.0</ele><time>2026-04-05T13:49:55.469Z</time></trkpt><trkpt lat="42.4194591" lon="12.7173969"><ele>987.0</ele><time>2026-04-05T13:50:02.469Z</time></trkpt><trkpt lat="42.4193946" lon="12.7174004"><ele>987.0</ele><time>2026-04-05T13:50:08.475Z</time></trkpt><trkpt lat="42.4193307" lon="12.7174387"><ele>987.0</ele><time>2026-04-05T13:50:14.442Z</time></trkpt><trkpt lat="42.4192595" lon="12.7174648"><ele>987.0</ele><time>2026-04-05T13:50:20.468Z</time></trkpt><trkpt lat="42.4191875" lon="12.7174864"><ele>987.0</ele><time>2026-04-05T13:50:26.469Z</time></trkpt><trkpt lat="42.4191121" lon="12.7175013"><ele>987.0</ele><time>2026-04-05T13:50:32.47Z</time></trkpt><trkpt lat="42.4190468" lon="12.7175176"><ele>987.0</ele><time>2026-04-05T13:50:38.48Z</time></trkpt><trkpt lat="42.4189733" lon="12.717549"><ele>987.0</ele><time>2026-04-05T13:50:55.469Z</time></trkpt><trkpt lat="42.4189151" lon="12.7175862"><ele>987.0</ele><time>2026-04-05T13:51:56.468Z</time></trkpt><trkpt lat="42.4188445" lon="12.7175818"><ele>987.0</ele><time>2026-04-05T13:52:17.484Z</time></trkpt><trkpt lat="42.4187802" lon="12.717613"><ele>987.0</ele><time>2026-04-05T13:52:22.468Z</time></trkpt><trkpt lat="42.4187179" lon="12.7176469"><ele>987.0</ele><time>2026-04-05T13:52:27.468Z</time></trkpt><trkpt lat="42.4186472" lon="12.7176775"><ele>968.0</ele><time>2026-04-05T13:52:33.506Z</time></trkpt><trkpt lat="42.4185716" lon="12.7176819"><ele>968.0</ele><time>2026-04-05T13:52:39.373Z</time></trkpt><trkpt lat="42.4185011" lon="12.7177131"><ele>968.0</ele><time>2026-04-05T13:52:45.494Z</time></trkpt><trkpt lat="42.4184379" lon="12.7177261"><ele>968.0</ele><time>2026-04-05T13:52:51.442Z</time></trkpt><trkpt lat="42.4183657" lon="12.7177422"><ele>986.0</ele><time>2026-04-05T13:52:57.467Z</time></trkpt></trkseg></trk></gpx>